Latest Weather Observations for Badgerys Creek

IDN60801

Issued at 9:02 am EDT Thursday 23 March 2017 (issued every 30 minutes, with the page automatically refreshed every 10 minutes)

About weather observations | Map of weather stations | Latest weather observations for NSW | Other Formats
Station Details ID: 067108 Name: BADGERYS CREEK AWS Lat: -33.90 Lon: 150.73 Height: 81.2 m
Data from the previous 72 hours. | See also: Recent months at Badgerys Creek
Date/Time
EDT
Temp
°C
App
Temp
°C
Dew
Point
°C
Rel
Hum
%
Delta-T
°C
Wind Press
QNH
hPa
Press
MSL
hPa
Rain since
9am
mm
Dir  Spd
km/h
Gust
km/h
Spd
kts
Gust
kts
23/09:00am 20.7 23.0 20.7 100 0.0 SSW 9 9 5 5 - 1018.8 9.0
23/08:30am 20.5 22.4 20.5 100 0.0 SSW 11 17 6 9 1018.8 1018.5 8.8
23/08:00am 20.3 22.5 20.3 100 0.0 SW 9 11 5 6 1018.4 1018.1 8.8
23/07:30am 20.0 22.4 20.0 100 0.0 SSW 7 9 4 5 1018.3 1018.0 8.8
23/07:00am 19.7 21.9 19.7 100 0.0 WSW 7 11 4 6 1018.1 1017.8 8.8
23/06:30am 19.8 22.3 19.8 100 0.0 SW 6 7 3 4 1017.7 1017.4 8.8
23/06:00am 20.1 22.2 20.1 100 0.0 SSW 9 13 5 7 1017.3 1017.1 8.8
23/05:30am 20.3 22.8 20.3 100 0.0 SSW 7 13 4 7 1017.0 1016.8 8.8
23/05:00am 20.2 22.9 20.2 100 0.0 SSW 6 7 3 4 1016.7 1016.5 8.8
23/04:30am 20.3 23.4 20.3 100 0.0 SSW 4 6 2 3 1016.7 1016.5 8.8
23/04:00am 20.2 23.3 20.2 100 0.0 SSW 4 6 2 3 1016.9 1016.7 8.8
23/03:30am 20.3 23.4 20.3 100 0.0 SW 4 9 2 5 1016.7 1016.5 8.8
23/03:00am 20.4 23.6 20.4 100 0.0 SW 4 6 2 3 1016.8 1016.6 8.8
23/02:30am 20.5 23.7 20.5 100 0.0 SW 4 6 2 3 1017.1 1016.9 8.8
23/02:00am 20.5 23.1 20.5 100 0.0 SSW 7 9 4 5 1016.9 1016.7 8.8
23/01:30am 20.6 23.3 20.6 100 0.0 SSW 7 13 4 7 1017.0 1016.8 8.8
23/01:00am 20.7 21.9 20.7 100 0.0 SSW 15 20 8 11 1017.0 1016.8 8.8
23/12:30am 20.7 23.6 20.7 100 0.0 SSE 6 11 3 6 1017.3 1017.1 8.8
23/12:00am 20.9 23.7 20.9 100 0.0 S 7 11 4 6 1017.1 1016.9 8.8
 
Date/Time
EDT
Temp
°C
App
Temp
°C
Dew
Point
°C
Rel
Hum
%
Delta-T
°C
Wind Press
QNH
hPa
Press
MSL
hPa
Rain since
9am
mm
Dir  Spd
km/h
Gust
km/h
Spd
kts
Gust
kts
22/11:30pm 20.9 23.7 20.9 100 0.0 S 7 11 4 6 1016.9 1016.7 8.8
22/11:00pm 20.6 23.8 20.6 100 0.0 SSW 4 6 2 3 1016.8 1016.6 8.8
22/10:30pm 20.4 23.0 20.4 100 0.0 SSW 7 9 4 5 1016.8 1016.6 8.8
22/10:00pm 20.1 22.7 20.1 100 0.0 SSW 6 7 3 4 1016.4 1016.2 8.8
22/09:30pm 20.2 22.7 20.2 100 0.0 SSW 7 9 4 5 1015.8 1015.5 8.8
22/09:00pm 20.2 22.7 20.2 100 0.0 S 7 9 4 5 1015.3 1015.0 8.8
22/08:30pm 20.1 22.7 20.1 100 0.0 SSW 6 7 3 4 1014.6 1014.3 8.8
22/08:00pm 20.4 23.6 20.4 100 0.0 SSW 4 6 2 3 1014.3 1014.0 8.6
22/07:30pm 20.5 23.3 20.5 100 0.0 SSW 6 7 3 4 1013.8 1013.5 8.6
22/07:00pm 20.5 24.1 20.5 100 0.0 SSW 2 4 1 2 1013.7 1013.4 8.6
22/06:30pm 20.7 24.8 20.7 100 0.0 CALM 0 6 0 3 1013.5 1013.2 8.6
22/06:00pm 20.7 23.4 20.7 100 0.0 SSE 7 11 4 6 1013.2 1012.9 8.6
22/05:30pm 21.6 24.8 21.6 100 0.0 S 7 11 4 6 1012.6 1012.3 8.6
22/05:00pm 20.2 20.8 20.2 100 0.0 SSE 17 28 9 15 1012.6 1012.3 8.2
22/04:30pm 22.7 23.6 22.7 100 0.0 W 22 37 12 20 1013.2 1012.9 3.4
22/04:20pm 23.6 25.6 23.6 100 0.0 SW 19 35 10 19 1012.9 1012.6 3.4
22/04:00pm 22.2 24.2 22.2 100 0.0 N 15 20 8 11 1010.8 1010.5 3.4
22/03:30pm 21.1 20.4 21.1 100 0.0 NW 26 39 14 21 1011.1 1010.8 3.0
22/03:21pm 21.5 18.6 21.5 100 0.0 WNW 39 56 21 30 1011.0 1010.7 0.6
22/03:16pm 21.7 20.9 21.7 100 0.0 WNW 28 59 15 32 1011.1 1010.8 0.2
22/03:11pm 27.0 33.4 27.0 100 0.0 SE 7 59 4 32 1010.7 1010.4 0.0
22/03:00pm 29.8 39.3 29.8 100 0.0 SE 2 6 1 3 1010.5 1010.2 0.0
22/02:30pm 30.8 40.3 30.8 100 0.0 ENE 6 9 3 5 1010.6 1010.3 0.0
22/02:00pm 30.1 39.0 30.1 100 0.0 ESE 6 9 3 5 1011.2 1010.9 0.0
22/01:30pm 30.2 39.2 30.2 100 0.0 SE 6 9 3 5 1011.7 1011.4 0.0
22/01:00pm 29.5 38.4 29.5 100 0.0 SSE 4 9 2 5 1011.8 1011.5 0.0
22/12:30pm 28.4 35.8 28.4 100 0.0 ESE 7 13 4 7 1011.9 1011.6 0.0
22/12:00pm 28.8 - - - - ENE 6 9 3 5 1012.2 1011.9 0.0
22/11:30am 27.9 - - - - NE 4 6 2 3 1012.6 1012.3 0.0
22/11:00am 26.2 - - - - ENE 4 7 2 4 1012.8 1012.5 0.0
22/10:30am 24.0 - - - - N 2 6 1 3 1013.0 1012.7 0.0
22/10:00am 23.6 - - - - CALM 0 2 0 1 1013.1 1012.8 0.0
22/09:30am 23.1 - - - - NNW 4 7 2 4 1012.9 1012.6 0.0
22/09:00am 22.6 - - - - NNW 4 7 2 4 1012.8 1012.5 16.2
22/08:30am 22.0 - - - - NNW 2 4 1 2 1012.7 1012.4 16.2
22/08:00am 21.6 - - - - NNW 11 13 6 7 1012.3 1012.0 16.2
22/07:30am 21.0 - - - - N 2 6 1 3 1012.0 1011.7 16.2
22/07:00am 21.2 - - - - N 7 9 4 5 1011.7 1011.4 16.2
22/06:30am 21.1 - - - - NNE 9 13 5 7 1011.3 1011.0 16.2
22/06:00am 20.9 - - - - SE 7 9 4 5 1010.9 1010.6 16.2
22/05:30am 20.9 - - - - S 6 7 3 4 1010.8 1010.5 16.2
22/05:00am 21.1 - - - - S 6 7 3 4 1010.5 1010.2 16.2
22/04:30am 21.2 - - - - CALM 0 4 0 2 1010.8 1010.5 16.2
22/04:00am 21.2 - - - - SSW 2 4 1 2 1010.7 1010.4 16.2
22/03:30am 21.3 - - - - S 4 6 2 3 1011.1 1010.8 16.2
22/03:00am 21.4 - - - - WNW 9 11 5 6 1011.4 1011.1 16.0
22/02:30am 21.3 - - - - SSW 7 9 4 5 1011.7 1011.4 16.0
22/02:00am 21.6 - - - - E 6 6 3 3 1011.9 1011.6 16.0
22/01:30am 21.8 - - - - E 6 7 3 4 1012.5 1012.2 16.0
22/01:00am 21.6 - - - - E 6 7 3 4 1012.8 1012.5 16.0
22/12:30am 21.8 - - - - E 2 2 1 1 1012.7 1012.4 16.0
22/12:00am 21.9 - - - - E 7 9 4 5 1013.3 1013.0 16.0
 
Date/Time
EDT
Temp
°C
App
Temp
°C
Dew
Point
°C
Rel
Hum
%
Delta-T
°C
Wind Press
QNH
hPa
Press
MSL
hPa
Rain since
9am
mm
Dir  Spd
km/h
Gust
km/h
Spd
kts
Gust
kts
21/11:30pm 21.9 - - - - E 4 6 2 3 1012.9 1012.6 16.0
21/11:00pm 22.0 - - - - E 6 7 3 4 1013.4 1013.1 16.0
21/10:30pm 22.0 - - - - E 7 9 4 5 1014.0 1013.7 16.0
21/10:00pm 22.0 - - - - E 4 4 2 2 1013.6 1013.3 16.0
21/09:30pm 22.1 - - - - E 4 6 2 3 1013.9 1013.6 16.0
21/09:00pm 22.1 26.1 22.1 100 0.0 E 4 6 2 3 1013.9 1013.6 16.0
21/08:30pm 21.9 25.4 21.9 100 0.0 E 6 6 3 3 1013.0 1012.7 16.0
21/08:00pm 21.9 26.2 21.9 100 0.0 E 2 4 1 2 1013.1 1012.8 15.8
21/07:30pm 21.9 25.8 21.9 100 0.0 E 4 6 2 3 1013.2 1012.9 15.8
21/07:00pm 22.1 25.7 22.1 100 0.0 ESE 6 9 3 5 1012.8 1012.5 15.2
21/06:30pm 22.5 26.2 22.5 100 0.0 E 7 9 4 5 1013.4 1013.1 13.2
21/06:00pm 22.7 27.0 22.7 100 0.0 SSW 4 9 2 5 1013.2 1012.9 11.4
21/05:30pm 22.8 26.8 22.8 100 0.0 SW 6 7 3 4 1012.7 1012.4 11.4
21/05:00pm 22.5 25.0 22.5 100 0.0 SSW 13 19 7 10 1012.6 1012.3 11.4
21/04:30pm 22.4 24.5 22.4 100 0.0 SSW 15 20 8 11 1012.8 1012.5 11.4
21/04:00pm 23.6 26.4 23.6 100 0.0 W 15 22 8 12 1013.5 1013.2 5.0
21/03:30pm 24.4 28.8 24.4 100 0.0 SW 9 13 5 7 1012.5 1012.2 0.4
21/03:00pm 26.2 33.4 26.2 100 0.0 CALM 0 7 0 4 1012.8 1012.5 0.2
21/02:30pm 26.7 33.9 26.7 100 0.0 NE 2 4 1 2 1013.0 1012.7 0.2
21/02:00pm 26.8 33.3 26.8 100 0.0 NE 6 9 3 5 1013.5 1013.2 0.2
21/01:30pm 26.6 33.3 26.6 100 0.0 NE 4 7 2 4 1013.9 1013.6 0.2
21/01:00pm 25.9 31.8 25.9 100 0.0 NE 6 9 3 5 1014.2 1013.9 0.2
21/12:30pm 25.8 31.6 25.8 100 0.0 NE 6 9 3 5 1014.5 1014.2 0.2
21/12:00pm 25.1 30.3 25.1 100 0.0 ENE 7 11 4 6 1015.2 1014.9 0.2
21/11:30am 24.7 29.8 24.7 100 0.0 E 6 9 3 5 1015.3 1015.0 0.2
21/11:00am 24.3 29.9 24.3 100 0.0 NE 2 6 1 3 1015.6 1015.3 0.2
21/10:30am 23.4 28.9 23.4 100 0.0 CALM 0 0 0 0 1016.0 1015.8 0.2
21/10:00am 23.1 28.0 23.1 100 0.0 NNE 2 4 1 2 1016.0 1015.8 0.2
21/09:30am 23.4 28.9 23.4 100 0.0 CALM 0 0 0 0 1016.0 1015.8 0.0
21/09:00am 23.0 28.3 23.0 100 0.0 CALM 0 2 0 1 1016.0 1015.8 0.0
21/08:30am 22.7 27.4 22.7 100 0.0 NNE 2 6 1 3 1015.9 1015.6 0.0
21/08:00am 22.5 27.5 22.5 100 0.0 CALM 0 0 0 0 1015.8 1015.5 0.0
21/07:30am 22.5 27.5 22.5 100 0.0 CALM 0 0 0 0 1015.6 1015.3 0.0
21/07:00am 22.4 27.3 22.4 100 0.0 CALM 0 0 0 0 1015.5 1015.2 0.0
21/06:30am 22.4 27.3 22.4 100 0.0 CALM 0 0 0 0 1015.1 1014.8 0.0
21/06:00am 22.4 27.3 22.4 100 0.0 CALM 0 0 0 0 1014.9 1014.6 0.0
21/05:30am 22.4 27.3 22.4 100 0.0 CALM 0 2 0 1 1014.6 1014.3 0.0
21/05:00am 22.3 26.8 22.3 100 0.0 E 2 4 1 2 1014.6 1014.3 0.0
21/04:30am 22.4 26.6 22.4 100 0.0 E 4 6 2 3 1014.8 1014.5 0.0
21/04:00am 22.4 26.6 22.4 100 0.0 E 4 6 2 3 1015.0 1014.7 0.0
21/03:30am 22.5 26.7 22.5 100 0.0 E 4 6 2 3 1015.2 1014.9 0.0
21/03:00am 22.5 27.1 22.5 100 0.0 ENE 2 4 1 2 1015.2 1014.9 0.0
21/02:30am 22.6 27.7 22.6 100 0.0 CALM 0 0 0 0 1015.5 1015.2 0.0
21/02:00am 22.7 27.8 22.7 100 0.0 CALM 0 0 0 0 1015.8 1015.5 0.0
21/01:30am 22.8 28.0 22.8 100 0.0 CALM 0 0 0 0 1015.8 1015.5 0.0
21/01:00am 22.8 27.2 22.8 100 0.0 ENE 4 4 2 2 1016.0 1015.8 0.0
21/12:30am 22.8 27.6 22.8 100 0.0 ENE 2 4 1 2 1016.3 1016.1 0.0
21/12:00am 22.8 26.8 22.8 100 0.0 ENE 6 7 3 4 1016.4 1016.2 0.0
 
Date/Time
EDT
Temp
°C
App
Temp
°C
Dew
Point
°C
Rel
Hum
%
Delta-T
°C
Wind Press
QNH
hPa
Press
MSL
hPa
Rain since
9am
mm
Dir  Spd
km/h
Gust
km/h
Spd
kts
Gust
kts
20/11:30pm 22.7 27.0 22.7 100 0.0 ENE 4 6 2 3 1016.5 1016.3 0.0
20/11:00pm 22.6 26.5 22.6 100 0.0 ENE 6 7 3 4 1016.6 1016.4 0.0
20/10:30pm 22.8 26.8 22.8 100 0.0 ENE 6 6 3 3 1016.6 1016.4 0.0
20/10:00pm 23.4 28.1 23.4 100 0.0 ENE 4 6 2 3 1016.6 1016.4 0.0
20/09:30pm 23.7 28.6 23.7 100 0.0 ENE 4 7 2 4 1016.5 1016.3 0.0
20/09:00pm 23.9 28.4 23.9 100 0.0 NE 7 9 4 5 1016.2 1016.0 0.0
20/08:30pm 24.1 29.2 24.1 100 0.0 NE 4 6 2 3 1015.9 1015.6 0.0
20/08:00pm 24.3 29.2 24.3 100 0.0 NE 6 9 3 5 1015.7 1015.4 0.0
20/07:30pm 24.8 29.0 24.8 100 0.0 NE 11 17 6 9 1015.1 1014.8 0.0
20/07:00pm 25.7 30.5 25.7 100 0.0 ENE 11 17 6 9 1015.1 1014.8 0.0
20/06:30pm 26.1 30.8 26.1 100 0.0 E 13 17 7 9 1015.0 1014.7 0.0
20/06:00pm 26.6 32.4 26.6 100 0.0 ESE 9 15 5 8 1014.8 1014.5 0.0
20/05:30pm 27.3 33.9 27.3 100 0.0 E 7 11 4 6 1014.5 1014.2 0.0
20/05:00pm 28.2 35.7 28.2 100 0.0 E 6 9 3 5 1014.5 1014.2 0.0
20/04:30pm 28.2 36.1 28.2 100 0.0 NE 4 7 2 4 1014.7 1014.4 0.0
20/04:00pm 27.7 34.8 27.7 100 0.0 ENE 6 7 3 4 1014.5 1014.2 0.0
20/03:30pm 27.9 35.0 27.9 100 0.0 ENE 7 9 4 5 1014.9 1014.6 0.0
20/03:00pm 27.9 34.6 27.9 100 0.0 ENE 9 13 5 7 1015.1 1014.8 0.0
20/02:30pm 28.8 36.2 28.8 100 0.0 ENE 9 15 5 8 1015.6 1015.3 0.0
20/02:00pm 28.1 34.6 28.1 100 0.0 NNE 11 15 6 8 1016.1 1015.9 0.0
20/01:30pm 28.7 36.4 28.7 100 0.0 ESE 7 13 4 7 1016.4 1016.2 0.0
20/01:00pm 27.5 34.5 27.5 100 0.0 NE 6 11 3 6 1016.9 1016.7 0.0
20/12:30pm 27.2 34.3 27.2 100 0.0 E 4 9 2 5 1017.3 1017.1 0.0
20/12:00pm 26.3 32.5 26.3 100 0.0 NE 6 7 3 4 1017.9 1017.6 0.0
20/11:30am 25.9 31.8 25.9 100 0.0 NE 6 7 3 4 1018.3 1018.0 0.0
20/11:00am 26.3 32.5 26.3 100 0.0 ENE 6 15 3 8 1018.5 1018.2 0.0
20/10:30am 25.1 - - - - NE 2 4 1 2 1018.5 1018.2 0.0
20/10:00am 24.6 - - - - NE 4 6 2 3 1018.7 1018.4 0.0
20/09:30am 24.1 - - - - NE 4 6 2 3 1018.7 1018.4 0.0

Other Formats:

Comma delimited format used in spreadsheet applications
http://www.bom.gov.au/fwo/IDN60801/IDN60801.94752.axf

JavaScript Object Notation format (JSON) in row-major order
http://www.bom.gov.au/fwo/IDN60801/IDN60801.94752.json